Hlavní strana
METAR-TAF:

METAR-TAF

Letiště :

Tabarka, Tunisko

zeměpisná šířka: 36-57N, zeměpisná délka: 008-45E, výška: 20 m

Aktuální stav počasí

Zpráva byla vytvořena před 22 minutami, v 09:00 UTC
Východní vítr 10 kt
Teplota 19°C
Vlhkost vzduchu 64%
Tlak 1020 hPa
Viditelnost 10 km a více
Skoro jasno ve výšce 2000 ft

METAR: DTKA 100900Z 09010KT 9999 FEW020 19/12 Q1020 NOSIG

Čas: 10:22 (09:22 UTC)

Předpověď počasí

Zpráva byla vytvořena před 3 hodinami a 22 minutami, v 06:00 UTC
Předpověď platná od 10 v 07 UTC do 10 v 16 UTC
Východoseverovýchodní vítr 8 kt
Viditelnost 10 km a více
Skoro jasno ve výšce 2000 ft

TAF: DTKA 100600Z 1007/1016 07008KT 9999 FEW020

Stav a předpovědi počasí z více než 4 000 letišť (zprávy METAR a TAF).

Červené a žluté tečky na mapě představují dostupné meteorologické stanice.

Když kurzor umístíte na tečku, zobrazí se název stanice.

Pak kliknutím zobrazíte stav a předpověď počasí.

Chcete-li změnit mapu, kliknutím na zelené tlačítko se znaménkem +mapu přiblížíte, kliknutím na zelené tlačítko se znaménkem – mapu oddálíte a kliknutím na zelené šipky přejdete na sousední mapy.


METAR-TAF: